createdAt,value
2022-09-07T00:02:40.719Z,9.10
2022-09-07T00:05:12.112Z,8.25
2022-09-07T00:07:42.486Z,8.60
2022-09-07T00:10:13.438Z,8.85
2022-09-07T00:12:46.798Z,8.10
2022-09-07T00:15:17.754Z,8.35
2022-09-07T00:17:48.598Z,10.38
2022-09-07T00:20:21.277Z,9.43
2022-09-07T00:22:52.194Z,9.27
2022-09-07T00:25:22.976Z,10.40
2022-09-07T00:27:56.182Z,10.18
2022-09-07T00:30:26.750Z,9.35
2022-09-07T00:32:57.485Z,8.85
2022-09-07T00:35:28.214Z,8.15
2022-09-07T00:37:59.388Z,7.93
2022-09-07T00:40:30.026Z,10.20
2022-09-07T00:43:03.354Z,9.30
2022-09-07T00:45:34.034Z,9.40
2022-09-07T00:48:08.363Z,10.15
2022-09-07T00:50:43.439Z,10.15
2022-09-07T00:53:19.915Z,10.20
2022-09-07T00:55:53.213Z,10.55
2022-09-07T00:58:27.524Z,8.48
2022-09-07T01:00:58.692Z,10.57
2022-09-07T01:03:33.924Z,10.35
2022-09-07T01:06:09.439Z,9.68
2022-09-07T01:08:40.394Z,10.48
2022-09-07T01:11:11.391Z,9.55
2022-09-07T01:13:47.880Z,10.43
2022-09-07T01:16:31.890Z,10.45
2022-09-07T01:19:22.356Z,12.05
2022-09-07T01:22:03.335Z,10.57
2022-09-07T01:24:51.332Z,11.32
2022-09-07T01:27:54.616Z,10.95
2022-09-07T01:30:28.440Z,11.25
2022-09-07T01:33:12.947Z,11.23
2022-09-07T01:35:51.189Z,11.93
2022-09-07T01:38:27.106Z,10.40
2022-09-07T01:41:06.113Z,10.52
2022-09-07T01:43:44.554Z,8.82
2022-09-07T01:46:22.714Z,9.65
2022-09-07T01:48:55.839Z,10.18
2022-09-07T01:51:34.371Z,10.02
2022-09-07T01:54:11.946Z,9.40
2022-09-07T01:56:46.940Z,11.13
2022-09-07T01:59:24.433Z,10.02
2022-09-07T02:02:04.796Z,11.30
2022-09-07T02:04:39.688Z,11.18
2022-09-07T02:07:16.212Z,11.27
2022-09-07T02:09:52.507Z,11.25
2022-09-07T02:12:28.167Z,10.38
2022-09-07T02:15:04.547Z,11.60
2022-09-07T02:17:42.329Z,13.40
2022-09-07T02:20:16.984Z,11.23
2022-09-07T02:22:51.842Z,12.95
2022-09-07T02:25:27.266Z,13.02
2022-09-07T02:28:04.064Z,12.20
2022-09-07T02:30:34.749Z,11.40
2022-09-07T02:33:08.516Z,13.50
2022-09-07T02:35:39.523Z,11.15
2022-09-07T02:38:10.765Z,10.93
2022-09-07T02:40:41.598Z,13.02
2022-09-07T02:43:13.666Z,12.48
2022-09-07T02:45:59.650Z,11.93
2022-09-07T02:48:46.253Z,12.57
2022-09-07T02:51:26.481Z,12.70
2022-09-07T02:54:18.719Z,13.27
2022-09-07T02:56:57.799Z,13.00
2022-09-07T02:59:53.694Z,11.90
2022-09-07T03:02:29.357Z,12.63
2022-09-07T03:05:08.869Z,11.32
2022-09-07T03:07:44.490Z,11.85
2022-09-07T03:10:17.211Z,12.13
2022-09-07T03:12:49.284Z,12.93
2022-09-07T03:15:22.797Z,12.07
2022-09-07T03:20:27.507Z,11.88
2022-09-07T03:22:58.087Z,11.52
2022-09-07T03:25:28.771Z,13.60
2022-09-07T03:27:59.143Z,12.40
2022-09-07T03:30:29.972Z,11.18
2022-09-07T03:33:00.645Z,12.45
2022-09-07T03:35:33.559Z,13.70
2022-09-07T03:38:03.960Z,12.32
2022-09-07T03:40:34.185Z,14.10
2022-09-07T03:43:04.460Z,12.80
2022-09-07T03:45:36.027Z,12.55
2022-09-07T03:48:06.957Z,12.13
2022-09-07T03:50:40.161Z,12.18
2022-09-07T03:53:10.807Z,11.75
2022-09-07T03:55:41.240Z,14.32
2022-09-07T03:58:11.519Z,11.88
2022-09-07T04:00:45.860Z,14.63
2022-09-07T04:03:16.283Z,14.20
2022-09-07T04:05:49.703Z,13.05
2022-09-07T04:08:20.417Z,13.60
2022-09-07T04:10:50.815Z,12.55
2022-09-07T04:13:21.346Z,12.90
2022-09-07T04:15:53.984Z,14.70
2022-09-07T04:18:24.870Z,11.70
2022-09-07T04:21:02.512Z,12.98
2022-09-07T04:23:32.980Z,12.27
2022-09-07T04:26:03.222Z,13.15
2022-09-07T04:28:33.764Z,14.50
2022-09-07T04:31:05.956Z,14.20
2022-09-07T04:33:37.816Z,14.25
2022-09-07T04:36:12.220Z,13.57
2022-09-07T04:38:43.101Z,13.85
2022-09-07T04:41:18.151Z,15.38
2022-09-07T04:43:50.191Z,15.15
2022-09-07T04:46:23.163Z,14.95
2022-09-07T04:48:55.374Z,14.00
2022-09-07T04:51:30.267Z,13.68
2022-09-07T04:54:02.694Z,15.85
2022-09-07T04:56:33.521Z,15.90
2022-09-07T04:59:05.166Z,14.63
2022-09-07T05:01:35.666Z,13.88
2022-09-07T05:04:08.168Z,17.35
2022-09-07T05:06:41.667Z,14.98
2022-09-07T05:11:42.260Z,13.23
2022-09-07T05:14:14.137Z,16.02
2022-09-07T05:16:44.757Z,13.20
2022-09-07T05:19:16.744Z,13.27
2022-09-07T05:21:50.246Z,11.82
2022-09-07T05:26:52.519Z,14.40
2022-09-07T05:32:14.163Z,12.30
2022-09-07T05:34:46.050Z,12.57
2022-09-07T05:37:20.412Z,15.67
2022-09-07T05:42:23.190Z,13.35
2022-09-07T05:44:53.521Z,16.63
2022-09-07T05:47:23.951Z,17.35
2022-09-07T05:49:57.048Z,14.05
2022-09-07T05:52:30.201Z,12.48
2022-09-07T05:55:19.294Z,11.75
2022-09-07T05:57:51.302Z,13.93
2022-09-07T06:00:22.659Z,16.73
2022-09-07T06:02:53.113Z,15.55
2022-09-07T06:05:23.609Z,15.38
2022-09-07T06:07:56.859Z,15.52
2022-09-07T06:13:14.311Z,15.68
2022-09-07T06:15:45.717Z,15.23
2022-09-07T06:18:16.361Z,14.63
2022-09-07T06:20:46.596Z,14.88
2022-09-07T06:23:19.939Z,15.65
2022-09-07T06:25:53.729Z,17.00
2022-09-07T06:28:24.506Z,17.08
2022-09-07T06:30:54.884Z,15.77
2022-09-07T06:33:25.416Z,16.55
2022-09-07T06:35:59.668Z,17.73
2022-09-07T06:38:34.349Z,16.42
2022-09-07T06:43:58.197Z,15.50
2022-09-07T06:49:20.176Z,15.95
2022-09-07T06:51:50.630Z,15.85
2022-09-07T06:57:15.275Z,16.77
2022-09-07T06:59:45.847Z,16.25
2022-09-07T07:02:17.000Z,17.10
2022-09-07T07:04:47.609Z,15.40
2022-09-07T07:07:22.022Z,17.00
2022-09-07T07:09:55.516Z,15.98
2022-09-07T07:14:55.851Z,15.55
2022-09-07T07:17:27.624Z,14.02
2022-09-07T07:19:58.577Z,15.38
2022-09-07T07:22:46.147Z,16.08
2022-09-07T07:25:20.861Z,16.10
2022-09-07T07:27:52.386Z,15.65
2022-09-07T07:30:25.278Z,15.35
2022-09-07T07:32:58.697Z,14.27
2022-09-07T07:43:57.416Z,13.95
2022-09-07T07:46:28.997Z,12.77
2022-09-07T07:49:00.282Z,13.95
2022-09-07T07:51:32.066Z,14.48
2022-09-07T07:54:22.500Z,13.88
2022-09-07T07:56:56.025Z,14.75
2022-09-07T07:59:27.105Z,14.90
2022-09-07T08:01:57.875Z,15.23
2022-09-07T08:04:29.917Z,13.38
2022-09-07T08:07:03.465Z,14.32
2022-09-07T08:09:37.235Z,14.30
2022-09-07T08:12:13.318Z,14.95
2022-09-07T08:14:44.559Z,14.38
2022-09-07T08:17:16.859Z,14.32
2022-09-07T08:19:47.710Z,14.90
2022-09-07T08:22:18.615Z,13.98
2022-09-07T08:24:49.747Z,14.77
2022-09-07T08:27:24.801Z,14.45
2022-09-07T08:29:55.413Z,14.02
2022-09-07T08:32:25.853Z,14.18
2022-09-07T08:34:57.443Z,13.38
2022-09-07T08:37:27.749Z,14.52
2022-09-07T08:39:58.247Z,14.98
2022-09-07T08:42:44.553Z,14.55
2022-09-07T08:45:19.719Z,18.42
2022-09-07T08:47:53.699Z,19.05
2022-09-07T08:50:29.640Z,19.00
2022-09-07T08:53:03.612Z,21.08
2022-09-07T08:55:37.060Z,19.58
2022-09-07T08:58:32.634Z,18.55
2022-09-07T09:04:22.416Z,17.73
2022-09-07T09:07:09.103Z,16.75
2022-09-07T09:09:58.545Z,16.35
2022-09-07T09:12:37.877Z,14.80
2022-09-07T09:15:21.403Z,14.63
2022-09-07T09:20:34.102Z,16.00
2022-09-07T09:23:13.606Z,15.63
2022-09-07T09:25:50.160Z,16.15
2022-09-07T09:28:20.847Z,17.60
2022-09-07T09:30:55.717Z,16.40
2022-09-07T09:33:27.639Z,16.60
2022-09-07T09:35:59.350Z,16.40
2022-09-07T09:38:39.661Z,16.20
2022-09-07T09:41:12.427Z,15.68
2022-09-07T09:43:47.612Z,14.63
2022-09-07T09:46:28.870Z,17.05
2022-09-07T09:49:02.599Z,15.60
2022-09-07T09:54:29.838Z,15.75
2022-09-07T10:05:38.027Z,15.40
2022-09-07T10:08:19.973Z,16.70
2022-09-07T10:10:55.678Z,16.17
2022-09-07T10:13:28.405Z,13.98
2022-09-07T10:16:00.552Z,15.93
2022-09-07T10:18:39.495Z,17.87
2022-09-07T10:21:28.527Z,14.98
2022-09-07T10:24:02.929Z,15.93
2022-09-07T10:26:35.887Z,14.30
2022-09-07T10:32:00.024Z,12.95
2022-09-07T10:34:42.885Z,13.27
2022-09-07T10:37:17.165Z,14.13
2022-09-07T10:40:10.866Z,12.13
2022-09-07T10:43:20.564Z,11.20
2022-09-07T10:45:44.545Z,10.93
2022-09-07T10:48:24.683Z,9.85
2022-09-07T10:51:09.837Z,11.38
2022-09-07T10:54:29.957Z,10.55
2022-09-07T10:56:48.286Z,9.98
2022-09-07T11:02:29.426Z,10.55
2022-09-07T11:05:11.414Z,10.05
2022-09-07T11:08:03.488Z,9.32
2022-09-07T11:10:44.925Z,10.10
2022-09-07T11:13:19.743Z,9.45
2022-09-07T11:15:56.521Z,11.18
2022-09-07T11:18:31.212Z,8.82
2022-09-07T11:21:05.457Z,9.90
2022-09-07T11:23:45.222Z,10.63
2022-09-07T11:26:20.324Z,10.80
2022-09-07T11:31:48.762Z,9.82
2022-09-07T11:34:25.208Z,9.02
2022-09-07T11:37:01.851Z,8.93
2022-09-07T11:39:42.120Z,8.40
2022-09-07T11:45:19.684Z,9.95
2022-09-07T11:47:56.293Z,8.93
2022-09-07T11:50:27.774Z,9.98
2022-09-07T11:53:02.098Z,9.68
2022-09-07T11:55:39.971Z,9.15
2022-09-07T11:58:28.882Z,8.73
2022-09-07T12:01:12.798Z,12.60
2022-09-07T12:04:12.087Z,11.65
2022-09-07T12:07:14.712Z,10.15
2022-09-07T12:10:02.977Z,11.45
2022-09-07T12:12:59.492Z,7.40
2022-09-07T12:15:38.907Z,7.35
2022-09-07T12:18:20.098Z,7.60
2022-09-07T12:20:51.918Z,7.85
2022-09-07T12:23:28.301Z,8.23
2022-09-07T12:26:36.075Z,8.02
2022-09-07T12:29:22.754Z,7.80
2022-09-07T12:31:58.683Z,8.88
2022-09-07T12:34:58.109Z,7.40
2022-09-07T12:37:45.946Z,8.23
2022-09-07T12:40:49.004Z,6.93
2022-09-07T12:43:49.048Z,7.82
2022-09-07T12:46:39.260Z,8.20
2022-09-07T12:49:18.482Z,7.70
2022-09-07T12:52:00.917Z,7.22
2022-09-07T12:54:40.319Z,7.15
2022-09-07T12:57:30.119Z,6.75
2022-09-07T13:00:09.323Z,7.30
2022-09-07T13:03:06.845Z,7.55
2022-09-07T13:05:52.875Z,7.85
2022-09-07T13:08:41.818Z,8.00
2022-09-07T13:11:20.099Z,7.90
2022-09-07T13:14:10.848Z,8.43
2022-09-07T13:20:02.775Z,9.75
2022-09-07T13:23:00.712Z,10.52
2022-09-07T13:25:48.345Z,8.05
2022-09-07T13:28:34.843Z,10.50
2022-09-07T13:31:32.399Z,8.40
2022-09-07T13:34:02.914Z,7.90
2022-09-07T13:36:41.900Z,7.50
2022-09-07T13:39:18.688Z,7.03
2022-09-07T13:41:54.382Z,7.72
2022-09-07T13:44:27.860Z,7.80
2022-09-07T13:47:08.090Z,6.68
2022-09-07T13:49:55.040Z,7.57
2022-09-07T13:52:34.425Z,7.38
2022-09-07T13:55:29.482Z,7.40
2022-09-07T13:58:14.794Z,7.57
2022-09-07T14:00:56.837Z,7.30
2022-09-07T14:03:29.266Z,7.60
2022-09-07T14:06:34.309Z,7.68
2022-09-07T14:09:07.898Z,7.72
2022-09-07T14:11:49.156Z,7.35
2022-09-07T14:14:22.339Z,7.15
2022-09-07T14:16:57.544Z,6.68
2022-09-07T14:19:30.458Z,7.53
2022-09-07T14:22:06.917Z,7.53
2022-09-07T14:24:39.309Z,8.98
2022-09-07T14:27:25.631Z,8.70
2022-09-07T14:29:56.448Z,9.20
2022-09-07T14:32:28.431Z,11.32
2022-09-07T14:35:01.501Z,9.40
2022-09-07T14:37:33.478Z,7.25
2022-09-07T14:40:04.775Z,7.88
2022-09-07T14:42:45.867Z,8.27
2022-09-07T14:45:37.811Z,7.47
2022-09-07T14:48:32.335Z,7.53
2022-09-07T14:51:29.759Z,7.65
2022-09-07T14:54:03.352Z,7.22
2022-09-07T14:56:40.512Z,7.47
2022-09-07T14:59:37.764Z,7.15
2022-09-07T15:02:28.712Z,6.93
2022-09-07T15:05:25.829Z,7.38
2022-09-07T15:07:58.536Z,6.28
2022-09-07T15:10:41.642Z,7.38
2022-09-07T15:13:29.196Z,8.55
2022-09-07T15:16:04.918Z,8.05
2022-09-07T15:18:54.984Z,7.10
2022-09-07T15:21:29.754Z,6.22
2022-09-07T15:24:01.546Z,7.28
2022-09-07T15:29:26.092Z,6.75
2022-09-07T15:32:04.847Z,6.95
2022-09-07T15:34:35.510Z,6.32
2022-09-07T15:38:01.060Z,6.35
2022-09-07T15:39:56.401Z,6.63
2022-09-07T15:45:19.522Z,6.88
2022-09-07T15:47:56.590Z,5.93
2022-09-07T15:50:31.015Z,6.80
2022-09-07T15:53:02.801Z,6.32
2022-09-07T15:55:38.555Z,6.53
2022-09-07T15:58:12.107Z,6.15
2022-09-07T16:00:44.474Z,6.53
2022-09-07T16:03:17.965Z,6.20
2022-09-07T16:05:49.320Z,6.55
2022-09-07T16:08:27.596Z,6.65
2022-09-07T16:11:12.504Z,6.30
2022-09-07T16:13:46.921Z,6.43
2022-09-07T16:16:18.394Z,6.65
2022-09-07T16:18:54.019Z,6.65
2022-09-07T16:21:32.914Z,6.57
2022-09-07T16:24:03.321Z,7.10
2022-09-07T16:26:33.725Z,7.10
2022-09-07T16:29:04.258Z,5.93
2022-09-07T16:31:37.617Z,6.55
2022-09-07T16:34:11.056Z,6.93
2022-09-07T16:36:41.463Z,7.05
2022-09-07T16:39:12.720Z,6.97
2022-09-07T16:41:44.847Z,6.75
2022-09-07T16:44:15.226Z,7.40
2022-09-07T16:46:45.996Z,6.60
2022-09-07T16:49:19.786Z,6.80
2022-09-07T16:51:50.246Z,6.28
2022-09-07T16:54:21.172Z,6.75
2022-09-07T16:56:52.743Z,7.70
2022-09-07T16:59:27.257Z,6.63
2022-09-07T17:01:57.434Z,7.40
2022-09-07T17:04:30.549Z,7.50
2022-09-07T17:09:31.124Z,7.03
2022-09-07T17:12:01.673Z,7.25
2022-09-07T17:14:32.128Z,7.35
2022-09-07T17:17:02.415Z,7.00
2022-09-07T17:19:35.600Z,7.28
2022-09-07T17:22:07.198Z,7.63
2022-09-07T17:24:39.308Z,8.00
2022-09-07T17:27:10.685Z,8.05
2022-09-07T17:29:43.221Z,7.93
2022-09-07T17:32:28.663Z,8.52
2022-09-07T17:35:01.887Z,7.95
2022-09-07T17:40:06.878Z,8.33
2022-09-07T17:45:36.674Z,8.70
2022-09-07T17:48:09.135Z,9.25
2022-09-07T17:50:43.271Z,8.80
2022-09-07T17:53:14.762Z,9.48
2022-09-07T17:55:48.263Z,8.88
2022-09-07T17:58:19.657Z,9.27
2022-09-07T18:00:52.921Z,9.13
2022-09-07T18:03:23.936Z,8.15
2022-09-07T18:05:59.449Z,9.30
2022-09-07T18:08:31.347Z,8.50
2022-09-07T18:14:01.563Z,9.98
2022-09-07T18:16:34.552Z,8.80
2022-09-07T18:19:09.491Z,9.65
2022-09-07T18:21:45.538Z,9.25
2022-09-07T18:24:20.116Z,9.77
2022-09-07T18:26:52.955Z,10.13
2022-09-07T18:29:29.514Z,9.32
2022-09-07T18:32:02.669Z,9.18
2022-09-07T18:34:32.947Z,9.32
2022-09-07T18:37:07.024Z,9.50
2022-09-07T18:39:40.502Z,9.88
2022-09-07T18:42:11.949Z,9.35
2022-09-07T18:47:36.776Z,10.40
2022-09-07T18:50:08.152Z,10.07
2022-09-07T18:55:33.713Z,11.52
2022-09-07T18:58:08.682Z,10.73
2022-09-07T19:00:41.555Z,12.27
2022-09-07T19:03:12.427Z,14.75
2022-09-07T19:05:52.881Z,14.75
2022-09-07T19:08:26.453Z,14.80
2022-09-07T19:13:47.791Z,16.15
2022-09-07T19:16:25.731Z,15.95
2022-09-07T19:19:00.840Z,15.50
2022-09-07T19:21:33.848Z,15.40
2022-09-07T19:24:14.535Z,15.75
2022-09-07T19:26:47.131Z,14.70
2022-09-07T19:29:42.057Z,14.07
2022-09-07T19:32:13.479Z,15.85
2022-09-07T19:34:54.764Z,15.18
2022-09-07T19:37:29.395Z,15.77
2022-09-07T19:40:02.836Z,17.08
2022-09-07T19:42:33.423Z,16.60
2022-09-07T19:45:03.760Z,17.15
2022-09-07T19:47:36.322Z,16.35
2022-09-07T19:50:06.811Z,16.80
2022-09-07T19:52:38.791Z,16.05
2022-09-07T19:55:12.944Z,15.40
2022-09-07T19:57:48.095Z,15.40
2022-09-07T20:00:19.891Z,16.65
2022-09-07T20:02:52.644Z,16.48
2022-09-07T20:05:24.212Z,16.10
2022-09-07T20:07:54.507Z,17.33
2022-09-07T20:10:28.246Z,15.85
2022-09-07T20:12:58.742Z,16.58
2022-09-07T20:15:30.480Z,17.58
2022-09-07T20:18:04.651Z,17.42
2022-09-07T20:20:36.845Z,17.45
2022-09-07T20:23:07.390Z,17.85
2022-09-07T20:25:41.058Z,16.83
2022-09-07T20:28:12.895Z,16.52
2022-09-07T20:30:46.612Z,16.40
2022-09-07T20:33:17.190Z,16.77
2022-09-07T20:35:48.170Z,17.25
2022-09-07T20:38:20.949Z,16.70
2022-09-07T20:40:59.003Z,17.23
2022-09-07T20:43:30.635Z,16.95
2022-09-07T20:46:04.482Z,17.70
2022-09-07T20:48:35.159Z,17.38
2022-09-07T20:51:08.339Z,17.42
2022-09-07T20:53:39.780Z,16.63
2022-09-07T20:56:15.577Z,16.65
2022-09-07T20:58:47.347Z,14.48
2022-09-07T21:01:21.530Z,16.85
2022-09-07T21:03:55.556Z,14.75
2022-09-07T21:06:27.045Z,13.27
2022-09-07T21:08:59.554Z,11.93
2022-09-07T21:11:35.159Z,9.70
2022-09-07T21:14:07.154Z,9.80
2022-09-07T21:16:37.958Z,10.02
2022-09-07T21:19:11.433Z,10.80
2022-09-07T21:24:20.338Z,19.10
2022-09-07T21:26:54.594Z,25.40
2022-09-07T21:29:26.664Z,51.53
2022-09-07T21:31:58.048Z,89.93
2022-09-07T21:34:29.255Z,68.50
2022-09-07T21:36:59.739Z,93.90
2022-09-07T21:39:30.550Z,115.22
2022-09-07T21:42:04.746Z,98.35
2022-09-07T21:44:37.009Z,85.47
2022-09-07T21:47:07.910Z,74.13
2022-09-07T21:49:38.407Z,60.05
2022-09-07T21:52:08.710Z,46.78
2022-09-07T21:54:38.986Z,40.08
2022-09-07T21:57:12.173Z,38.45
2022-09-07T21:59:42.557Z,48.35
2022-09-07T22:02:16.441Z,56.85
2022-09-07T22:04:47.072Z,58.88
2022-09-07T22:07:17.958Z,62.20
2022-09-07T22:09:48.314Z,68.00
2022-09-07T22:12:21.524Z,73.13
2022-09-07T22:14:52.154Z,72.35
2022-09-07T22:17:22.582Z,72.75
2022-09-07T22:19:52.869Z,72.15
2022-09-07T22:22:23.266Z,70.07
2022-09-07T22:24:53.511Z,69.45
2022-09-07T22:27:26.828Z,74.40
2022-09-07T22:32:28.002Z,69.85
2022-09-07T22:34:58.191Z,63.58
2022-09-07T22:37:28.705Z,61.97
2022-09-07T22:39:59.096Z,51.83
2022-09-07T22:42:32.322Z,50.45
2022-09-07T22:45:02.586Z,53.35
2022-09-07T22:47:32.988Z,50.53
2022-09-07T22:50:03.340Z,45.80
2022-09-07T22:52:33.719Z,41.55
2022-09-07T22:55:04.609Z,34.83
2022-09-07T22:57:38.701Z,29.95
2022-09-07T23:00:12.110Z,29.08
2022-09-07T23:05:13.477Z,25.48
2022-09-07T23:07:43.818Z,22.48
2022-09-07T23:10:14.320Z,18.75
2022-09-07T23:12:47.777Z,18.45
2022-09-07T23:15:19.187Z,15.93
2022-09-07T23:17:49.973Z,14.82
2022-09-07T23:20:20.925Z,13.18
2022-09-07T23:22:51.233Z,10.80
2022-09-07T23:25:22.438Z,8.63
2022-09-07T23:27:56.399Z,8.75
2022-09-07T23:30:27.379Z,7.85
2022-09-07T23:32:58.428Z,6.50
2022-09-07T23:35:28.882Z,8.02
2022-09-07T23:37:59.844Z,6.35
2022-09-07T23:40:32.174Z,7.03
2022-09-07T23:43:05.976Z,6.40
2022-09-07T23:45:37.093Z,6.75
2022-09-07T23:48:07.799Z,6.57
2022-09-07T23:50:38.142Z,6.82
2022-09-07T23:53:08.714Z,6.22
2022-09-07T23:55:39.139Z,7.18
2022-09-07T23:58:12.952Z,6.63
